sensor_id;sensor_type;location;lat;lon;timestamp;temperature;humidity
18998;DHT22;9632;51.018;4.284;2023-04-16T00:02:14;10.90;99.90
18998;DHT22;9632;51.018;4.284;2023-04-16T00:04:40;10.90;99.90
18998;DHT22;9632;51.018;4.284;2023-04-16T00:07:06;10.90;99.90
18998;DHT22;9632;51.018;4.284;2023-04-16T00:09:32;11.00;99.90
18998;DHT22;9632;51.018;4.284;2023-04-16T00:11:58;11.00;99.90
18998;DHT22;9632;51.018;4.284;2023-04-16T00:14:23;11.00;99.90
18998;DHT22;9632;51.018;4.284;2023-04-16T00:16:49;11.10;99.90
18998;DHT22;9632;51.018;4.284;2023-04-16T00:19:15;11.00;99.90
18998;DHT22;9632;51.018;4.284;2023-04-16T00:21:40;11.00;99.90
18998;DHT22;9632;51.018;4.284;2023-04-16T00:24:06;11.00;99.90
18998;DHT22;9632;51.018;4.284;2023-04-16T00:26:32;11.00;99.90
18998;DHT22;9632;51.018;4.284;2023-04-16T00:28:57;11.00;99.90
18998;DHT22;9632;51.018;4.284;2023-04-16T00:31:27;10.90;99.90
18998;DHT22;9632;51.018;4.284;2023-04-16T00:33:53;10.90;99.90
18998;DHT22;9632;51.018;4.284;2023-04-16T00:36:20;10.90;99.90
18998;DHT22;9632;51.018;4.284;2023-04-16T00:38:45;10.80;99.90
18998;DHT22;9632;51.018;4.284;2023-04-16T00:41:11;10.80;99.90
18998;DHT22;9632;51.018;4.284;2023-04-16T00:43:36;10.80;99.90
18998;DHT22;9632;51.018;4.284;2023-04-16T00:46:04;10.70;99.90
18998;DHT22;9632;51.018;4.284;2023-04-16T00:48:31;10.70;99.90
18998;DHT22;9632;51.018;4.284;2023-04-16T00:50:58;10.70;99.90
18998;DHT22;9632;51.018;4.284;2023-04-16T00:53:26;10.70;99.90
18998;DHT22;9632;51.018;4.284;2023-04-16T00:55:52;10.70;99.90
18998;DHT22;9632;51.018;4.284;2023-04-16T00:58:20;10.70;99.90
18998;DHT22;9632;51.018;4.284;2023-04-16T01:00:46;10.80;99.90
18998;DHT22;9632;51.018;4.284;2023-04-16T01:03:12;10.80;99.90
18998;DHT22;9632;51.018;4.284;2023-04-16T01:05:38;10.80;99.90
18998;DHT22;9632;51.018;4.284;2023-04-16T01:08:03;10.80;99.90
18998;DHT22;9632;51.018;4.284;2023-04-16T01:10:29;10.80;99.90
18998;DHT22;9632;51.018;4.284;2023-04-16T01:12:55;10.80;99.90
18998;DHT22;9632;51.018;4.284;2023-04-16T01:15:21;10.80;99.90
18998;DHT22;9632;51.018;4.284;2023-04-16T01:17:46;10.70;99.90
18998;DHT22;9632;51.018;4.284;2023-04-16T01:20:12;10.70;99.90
18998;DHT22;9632;51.018;4.284;2023-04-16T01:22:38;10.80;99.90
18998;DHT22;9632;51.018;4.284;2023-04-16T01:25:03;10.80;99.90
18998;DHT22;9632;51.018;4.284;2023-04-16T01:27:29;10.80;99.90
18998;DHT22;9632;51.018;4.284;2023-04-16T01:29:55;10.70;99.90
18998;DHT22;9632;51.018;4.284;2023-04-16T01:32:21;10.80;99.90
18998;DHT22;9632;51.018;4.284;2023-04-16T01:34:47;10.80;99.90
18998;DHT22;9632;51.018;4.284;2023-04-16T01:37:12;10.80;99.90
18998;DHT22;9632;51.018;4.284;2023-04-16T01:39:38;10.90;99.90
18998;DHT22;9632;51.018;4.284;2023-04-16T01:42:03;10.80;99.90
18998;DHT22;9632;51.018;4.284;2023-04-16T01:44:29;10.80;99.90
18998;DHT22;9632;51.018;4.284;2023-04-16T01:46:55;10.80;99.90
18998;DHT22;9632;51.018;4.284;2023-04-16T01:49:21;10.80;99.90
18998;DHT22;9632;51.018;4.284;2023-04-16T01:51:47;10.80;99.90
18998;DHT22;9632;51.018;4.284;2023-04-16T01:54:13;10.90;99.90
18998;DHT22;9632;51.018;4.284;2023-04-16T01:56:39;10.90;99.90
18998;DHT22;9632;51.018;4.284;2023-04-16T01:59:04;10.90;99.90
18998;DHT22;9632;51.018;4.284;2023-04-16T02:01:30;10.80;99.90
18998;DHT22;9632;51.018;4.284;2023-04-16T02:03:56;10.80;99.90
18998;DHT22;9632;51.018;4.284;2023-04-16T02:06:22;10.90;99.90
18998;DHT22;9632;51.018;4.284;2023-04-16T02:08:47;10.90;99.90
18998;DHT22;9632;51.018;4.284;2023-04-16T02:11:14;10.90;99.90
18998;DHT22;9632;51.018;4.284;2023-04-16T02:13:40;10.90;99.90
18998;DHT22;9632;51.018;4.284;2023-04-16T02:16:06;10.90;99.90
18998;DHT22;9632;51.018;4.284;2023-04-16T02:18:31;10.80;99.90
18998;DHT22;9632;51.018;4.284;2023-04-16T02:20:58;10.80;99.90
18998;DHT22;9632;51.018;4.284;2023-04-16T02:23:24;10.90;99.90
18998;DHT22;9632;51.018;4.284;2023-04-16T02:25:50;10.90;99.90
18998;DHT22;9632;51.018;4.284;2023-04-16T02:28:16;10.90;99.90
18998;DHT22;9632;51.018;4.284;2023-04-16T02:30:42;10.90;99.90
18998;DHT22;9632;51.018;4.284;2023-04-16T02:33:09;10.90;99.90
18998;DHT22;9632;51.018;4.284;2023-04-16T02:35:36;10.90;99.90
18998;DHT22;9632;51.018;4.284;2023-04-16T02:38:03;11.00;99.90
18998;DHT22;9632;51.018;4.284;2023-04-16T02:40:29;11.00;99.90
18998;DHT22;9632;51.018;4.284;2023-04-16T02:42:55;10.90;99.90
18998;DHT22;9632;51.018;4.284;2023-04-16T02:45:21;10.90;99.90
18998;DHT22;9632;51.018;4.284;2023-04-16T02:47:48;11.00;99.90
18998;DHT22;9632;51.018;4.284;2023-04-16T02:50:14;10.90;99.90
18998;DHT22;9632;51.018;4.284;2023-04-16T02:52:40;10.90;99.90
18998;DHT22;9632;51.018;4.284;2023-04-16T02:55:06;10.90;99.90
18998;DHT22;9632;51.018;4.284;2023-04-16T02:57:32;10.90;99.90
18998;DHT22;9632;51.018;4.284;2023-04-16T02:59:57;11.00;99.90
18998;DHT22;9632;51.018;4.284;2023-04-16T03:02:23;10.90;99.90
18998;DHT22;9632;51.018;4.284;2023-04-16T03:04:49;11.00;99.90
18998;DHT22;9632;51.018;4.284;2023-04-16T03:07:15;11.00;99.90
18998;DHT22;9632;51.018;4.284;2023-04-16T03:09:42;11.00;99.90
18998;DHT22;9632;51.018;4.284;2023-04-16T03:12:08;11.00;99.90
18998;DHT22;9632;51.018;4.284;2023-04-16T03:14:34;11.00;99.90
18998;DHT22;9632;51.018;4.284;2023-04-16T03:17:00;11.00;99.90
18998;DHT22;9632;51.018;4.284;2023-04-16T03:19:26;11.00;99.90
18998;DHT22;9632;51.018;4.284;2023-04-16T03:21:52;11.00;99.90
18998;DHT22;9632;51.018;4.284;2023-04-16T03:24:17;11.00;99.90
18998;DHT22;9632;51.018;4.284;2023-04-16T03:26:43;11.00;99.90
18998;DHT22;9632;51.018;4.284;2023-04-16T03:29:09;11.00;99.90
18998;DHT22;9632;51.018;4.284;2023-04-16T03:31:34;11.00;99.90
18998;DHT22;9632;51.018;4.284;2023-04-16T03:34:00;11.00;99.90
18998;DHT22;9632;51.018;4.284;2023-04-16T03:36:26;10.90;99.90
18998;DHT22;9632;51.018;4.284;2023-04-16T03:38:52;10.90;99.90
18998;DHT22;9632;51.018;4.284;2023-04-16T03:41:17;10.90;99.90
18998;DHT22;9632;51.018;4.284;2023-04-16T03:43:43;10.90;99.90
18998;DHT22;9632;51.018;4.284;2023-04-16T03:46:09;10.90;99.90
18998;DHT22;9632;51.018;4.284;2023-04-16T03:48:34;10.90;99.90
18998;DHT22;9632;51.018;4.284;2023-04-16T03:51:01;11.00;99.90
18998;DHT22;9632;51.018;4.284;2023-04-16T03:53:26;11.00;99.90
18998;DHT22;9632;51.018;4.284;2023-04-16T03:55:52;10.90;99.90
18998;DHT22;9632;51.018;4.284;2023-04-16T03:58:18;10.90;99.90
18998;DHT22;9632;51.018;4.284;2023-04-16T04:00:44;10.90;99.90
18998;DHT22;9632;51.018;4.284;2023-04-16T04:03:11;10.90;99.90
18998;DHT22;9632;51.018;4.284;2023-04-16T04:05:40;10.90;99.90
18998;DHT22;9632;51.018;4.284;2023-04-16T04:08:06;10.90;99.90
18998;DHT22;9632;51.018;4.284;2023-04-16T04:10:33;10.90;99.90
18998;DHT22;9632;51.018;4.284;2023-04-16T04:13:04;10.90;99.90
18998;DHT22;9632;51.018;4.284;2023-04-16T04:15:30;10.90;99.90
18998;DHT22;9632;51.018;4.284;2023-04-16T04:17:56;10.90;99.90
18998;DHT22;9632;51.018;4.284;2023-04-16T04:20:22;10.90;99.90
18998;DHT22;9632;51.018;4.284;2023-04-16T04:22:48;10.90;99.90
18998;DHT22;9632;51.018;4.284;2023-04-16T04:25:15;10.90;99.90
18998;DHT22;9632;51.018;4.284;2023-04-16T04:27:41;10.90;99.90
18998;DHT22;9632;51.018;4.284;2023-04-16T04:30:07;11.00;99.90
18998;DHT22;9632;51.018;4.284;2023-04-16T04:32:33;11.00;99.90
18998;DHT22;9632;51.018;4.284;2023-04-16T04:35:01;11.00;99.90
18998;DHT22;9632;51.018;4.284;2023-04-16T04:37:27;10.90;99.90
18998;DHT22;9632;51.018;4.284;2023-04-16T04:39:52;11.00;99.90
18998;DHT22;9632;51.018;4.284;2023-04-16T04:42:19;11.00;99.90
18998;DHT22;9632;51.018;4.284;2023-04-16T04:44:45;11.00;99.90
18998;DHT22;9632;51.018;4.284;2023-04-16T04:47:12;11.00;99.90
18998;DHT22;9632;51.018;4.284;2023-04-16T04:49:38;10.90;99.90
18998;DHT22;9632;51.018;4.284;2023-04-16T04:52:03;10.90;99.90
18998;DHT22;9632;51.018;4.284;2023-04-16T04:54:31;10.80;99.90
18998;DHT22;9632;51.018;4.284;2023-04-16T04:56:57;10.90;99.90
18998;DHT22;9632;51.018;4.284;2023-04-16T04:59:23;10.80;99.90
18998;DHT22;9632;51.018;4.284;2023-04-16T05:01:49;10.90;99.90
18998;DHT22;9632;51.018;4.284;2023-04-16T05:04:15;10.90;99.90
18998;DHT22;9632;51.018;4.284;2023-04-16T05:06:41;10.90;99.90
18998;DHT22;9632;51.018;4.284;2023-04-16T05:09:07;10.90;99.90
18998;DHT22;9632;51.018;4.284;2023-04-16T05:11:40;11.00;99.90
18998;DHT22;9632;51.018;4.284;2023-04-16T05:14:06;11.00;99.90
18998;DHT22;9632;51.018;4.284;2023-04-16T05:16:35;11.00;99.90
18998;DHT22;9632;51.018;4.284;2023-04-16T05:19:01;11.00;99.90
18998;DHT22;9632;51.018;4.284;2023-04-16T05:21:27;11.00;99.90
18998;DHT22;9632;51.018;4.284;2023-04-16T05:23:52;11.00;99.90
18998;DHT22;9632;51.018;4.284;2023-04-16T05:26:18;10.90;99.90
18998;DHT22;9632;51.018;4.284;2023-04-16T05:28:44;10.90;99.90
18998;DHT22;9632;51.018;4.284;2023-04-16T05:31:09;10.90;99.90
18998;DHT22;9632;51.018;4.284;2023-04-16T05:33:35;11.00;99.90
18998;DHT22;9632;51.018;4.284;2023-04-16T05:36:01;10.90;99.90
18998;DHT22;9632;51.018;4.284;2023-04-16T05:38:26;11.00;99.90
18998;DHT22;9632;51.018;4.284;2023-04-16T05:40:52;10.90;99.90
18998;DHT22;9632;51.018;4.284;2023-04-16T05:43:17;10.90;99.90
18998;DHT22;9632;51.018;4.284;2023-04-16T05:45:43;11.00;99.90
18998;DHT22;9632;51.018;4.284;2023-04-16T05:48:09;11.00;99.90
18998;DHT22;9632;51.018;4.284;2023-04-16T05:50:35;10.90;99.90
18998;DHT22;9632;51.018;4.284;2023-04-16T05:53:03;10.90;99.90
18998;DHT22;9632;51.018;4.284;2023-04-16T05:55:30;10.90;99.90
18998;DHT22;9632;51.018;4.284;2023-04-16T05:57:55;10.90;99.90
18998;DHT22;9632;51.018;4.284;2023-04-16T06:00:21;10.90;99.90
18998;DHT22;9632;51.018;4.284;2023-04-16T06:02:47;10.90;99.90
18998;DHT22;9632;51.018;4.284;2023-04-16T06:05:12;10.90;99.90
18998;DHT22;9632;51.018;4.284;2023-04-16T06:07:38;10.90;99.90
18998;DHT22;9632;51.018;4.284;2023-04-16T06:10:04;10.90;99.90
18998;DHT22;9632;51.018;4.284;2023-04-16T06:12:30;11.00;99.90
18998;DHT22;9632;51.018;4.284;2023-04-16T06:14:56;11.00;99.90
18998;DHT22;9632;51.018;4.284;2023-04-16T06:17:21;11.00;99.90
18998;DHT22;9632;51.018;4.284;2023-04-16T06:19:47;11.00;99.90
18998;DHT22;9632;51.018;4.284;2023-04-16T06:22:13;10.90;99.90
18998;DHT22;9632;51.018;4.284;2023-04-16T06:24:38;11.00;99.90
18998;DHT22;9632;51.018;4.284;2023-04-16T06:27:04;11.00;99.90
18998;DHT22;9632;51.018;4.284;2023-04-16T06:29:30;11.00;99.90
18998;DHT22;9632;51.018;4.284;2023-04-16T06:31:55;11.00;99.90
18998;DHT22;9632;51.018;4.284;2023-04-16T06:34:21;10.90;99.90
18998;DHT22;9632;51.018;4.284;2023-04-16T06:36:46;11.00;99.90
18998;DHT22;9632;51.018;4.284;2023-04-16T06:39:12;10.90;99.90
18998;DHT22;9632;51.018;4.284;2023-04-16T06:41:38;10.90;99.90
18998;DHT22;9632;51.018;4.284;2023-04-16T06:44:03;10.90;99.90
18998;DHT22;9632;51.018;4.284;2023-04-16T06:46:29;10.90;99.90
18998;DHT22;9632;51.018;4.284;2023-04-16T06:48:55;10.90;99.90
18998;DHT22;9632;51.018;4.284;2023-04-16T06:51:21;10.90;99.90
18998;DHT22;9632;51.018;4.284;2023-04-16T06:53:47;10.90;99.90
18998;DHT22;9632;51.018;4.284;2023-04-16T06:56:13;11.00;99.90
18998;DHT22;9632;51.018;4.284;2023-04-16T06:58:39;10.90;99.90
18998;DHT22;9632;51.018;4.284;2023-04-16T07:01:04;11.00;99.90
18998;DHT22;9632;51.018;4.284;2023-04-16T07:03:30;11.00;99.90
18998;DHT22;9632;51.018;4.284;2023-04-16T07:05:56;11.00;99.90
18998;DHT22;9632;51.018;4.284;2023-04-16T07:08:22;10.90;99.90
18998;DHT22;9632;51.018;4.284;2023-04-16T07:10:47;11.00;99.90
18998;DHT22;9632;51.018;4.284;2023-04-16T07:13:13;11.00;99.90
18998;DHT22;9632;51.018;4.284;2023-04-16T07:15:39;11.00;99.90
18998;DHT22;9632;51.018;4.284;2023-04-16T07:18:05;11.00;99.90
18998;DHT22;9632;51.018;4.284;2023-04-16T07:20:30;11.00;99.90
18998;DHT22;9632;51.018;4.284;2023-04-16T07:22:56;11.10;99.90
18998;DHT22;9632;51.018;4.284;2023-04-16T07:25:23;11.10;99.90
18998;DHT22;9632;51.018;4.284;2023-04-16T07:27:49;11.10;99.90
18998;DHT22;9632;51.018;4.284;2023-04-16T07:30:15;11.10;99.90
18998;DHT22;9632;51.018;4.284;2023-04-16T07:32:41;11.10;99.90
18998;DHT22;9632;51.018;4.284;2023-04-16T07:35:07;11.10;99.90
18998;DHT22;9632;51.018;4.284;2023-04-16T07:37:33;11.10;99.90
18998;DHT22;9632;51.018;4.284;2023-04-16T07:39:58;11.10;99.90
18998;DHT22;9632;51.018;4.284;2023-04-16T07:42:26;11.10;99.90
18998;DHT22;9632;51.018;4.284;2023-04-16T07:44:52;11.10;99.90
18998;DHT22;9632;51.018;4.284;2023-04-16T07:47:17;11.10;99.90
18998;DHT22;9632;51.018;4.284;2023-04-16T07:49:43;11.00;99.90
18998;DHT22;9632;51.018;4.284;2023-04-16T07:52:09;11.00;99.90
18998;DHT22;9632;51.018;4.284;2023-04-16T07:54:34;11.00;99.90
18998;DHT22;9632;51.018;4.284;2023-04-16T07:57:00;11.10;99.90
18998;DHT22;9632;51.018;4.284;2023-04-16T07:59:26;11.10;99.90
18998;DHT22;9632;51.018;4.284;2023-04-16T08:01:52;11.10;99.90
18998;DHT22;9632;51.018;4.284;2023-04-16T08:04:21;11.10;99.90
18998;DHT22;9632;51.018;4.284;2023-04-16T08:06:50;11.00;99.90
18998;DHT22;9632;51.018;4.284;2023-04-16T08:09:16;11.10;99.90
18998;DHT22;9632;51.018;4.284;2023-04-16T08:11:42;11.10;99.90
18998;DHT22;9632;51.018;4.284;2023-04-16T08:14:07;11.10;99.90
18998;DHT22;9632;51.018;4.284;2023-04-16T08:16:33;11.10;99.90
18998;DHT22;9632;51.018;4.284;2023-04-16T08:18:58;11.10;99.90
18998;DHT22;9632;51.018;4.284;2023-04-16T08:21:26;11.10;99.90
18998;DHT22;9632;51.018;4.284;2023-04-16T08:23:52;11.10;99.90
18998;DHT22;9632;51.018;4.284;2023-04-16T08:26:18;11.10;99.90
18998;DHT22;9632;51.018;4.284;2023-04-16T08:28:44;11.10;99.90
18998;DHT22;9632;51.018;4.284;2023-04-16T08:31:10;11.10;99.90
18998;DHT22;9632;51.018;4.284;2023-04-16T08:33:36;11.10;99.90
18998;DHT22;9632;51.018;4.284;2023-04-16T08:36:01;11.10;99.90
18998;DHT22;9632;51.018;4.284;2023-04-16T08:38:27;11.00;99.90
18998;DHT22;9632;51.018;4.284;2023-04-16T08:40:54;11.00;99.90
18998;DHT22;9632;51.018;4.284;2023-04-16T08:43:22;11.00;99.90
18998;DHT22;9632;51.018;4.284;2023-04-16T08:45:50;11.00;99.90
18998;DHT22;9632;51.018;4.284;2023-04-16T08:48:18;11.10;99.90
18998;DHT22;9632;51.018;4.284;2023-04-16T08:50:45;11.10;99.90
18998;DHT22;9632;51.018;4.284;2023-04-16T08:53:17;11.10;99.90
18998;DHT22;9632;51.018;4.284;2023-04-16T08:55:47;11.20;99.90
18998;DHT22;9632;51.018;4.284;2023-04-16T08:58:21;11.10;99.90
18998;DHT22;9632;51.018;4.284;2023-04-16T09:00:48;11.10;99.90
18998;DHT22;9632;51.018;4.284;2023-04-16T09:03:14;11.20;99.90
18998;DHT22;9632;51.018;4.284;2023-04-16T09:08:58;11.20;99.90
18998;DHT22;9632;51.018;4.284;2023-04-16T09:11:24;11.30;99.90
18998;DHT22;9632;51.018;4.284;2023-04-16T09:13:51;11.30;99.90
18998;DHT22;9632;51.018;4.284;2023-04-16T09:16:17;11.30;99.90
18998;DHT22;9632;51.018;4.284;2023-04-16T09:18:44;11.30;99.90
18998;DHT22;9632;51.018;4.284;2023-04-16T09:21:12;11.30;99.90
18998;DHT22;9632;51.018;4.284;2023-04-16T09:23:39;11.30;99.90
18998;DHT22;9632;51.018;4.284;2023-04-16T09:26:05;11.30;99.90
18998;DHT22;9632;51.018;4.284;2023-04-16T09:28:44;11.30;99.90
18998;DHT22;9632;51.018;4.284;2023-04-16T09:31:15;11.40;99.90
18998;DHT22;9632;51.018;4.284;2023-04-16T09:33:41;11.40;99.90
18998;DHT22;9632;51.018;4.284;2023-04-16T09:36:08;11.30;99.90
18998;DHT22;9632;51.018;4.284;2023-04-16T09:38:49;11.40;99.90
18998;DHT22;9632;51.018;4.284;2023-04-16T09:41:16;11.40;99.90
18998;DHT22;9632;51.018;4.284;2023-04-16T09:44:03;11.40;99.90
18998;DHT22;9632;51.018;4.284;2023-04-16T09:46:39;11.40;99.90
18998;DHT22;9632;51.018;4.284;2023-04-16T09:49:13;11.40;99.90
18998;DHT22;9632;51.018;4.284;2023-04-16T09:51:46;11.50;99.90
18998;DHT22;9632;51.018;4.284;2023-04-16T09:54:12;11.50;99.90
18998;DHT22;9632;51.018;4.284;2023-04-16T09:56:42;11.50;99.90
18998;DHT22;9632;51.018;4.284;2023-04-16T09:59:18;11.50;99.90
18998;DHT22;9632;51.018;4.284;2023-04-16T10:01:44;11.50;99.90
18998;DHT22;9632;51.018;4.284;2023-04-16T10:04:18;11.50;99.90
18998;DHT22;9632;51.018;4.284;2023-04-16T10:07:04;11.50;99.90
18998;DHT22;9632;51.018;4.284;2023-04-16T10:09:37;11.50;99.90
18998;DHT22;9632;51.018;4.284;2023-04-16T10:12:04;11.50;99.90
18998;DHT22;9632;51.018;4.284;2023-04-16T10:14:31;11.50;99.90
18998;DHT22;9632;51.018;4.284;2023-04-16T10:16:58;11.50;99.90
18998;DHT22;9632;51.018;4.284;2023-04-16T10:19:25;11.60;99.90
18998;DHT22;9632;51.018;4.284;2023-04-16T10:21:52;11.50;99.90
18998;DHT22;9632;51.018;4.284;2023-04-16T10:24:18;11.50;99.90
18998;DHT22;9632;51.018;4.284;2023-04-16T10:26:44;11.50;99.90
18998;DHT22;9632;51.018;4.284;2023-04-16T10:29:11;11.40;99.90
18998;DHT22;9632;51.018;4.284;2023-04-16T10:31:38;11.40;99.90
18998;DHT22;9632;51.018;4.284;2023-04-16T10:34:07;11.40;99.90
18998;DHT22;9632;51.018;4.284;2023-04-16T10:36:36;11.50;99.90
18998;DHT22;9632;51.018;4.284;2023-04-16T10:39:03;11.50;99.90
18998;DHT22;9632;51.018;4.284;2023-04-16T10:41:31;11.50;99.90
18998;DHT22;9632;51.018;4.284;2023-04-16T10:44:05;11.60;99.90
18998;DHT22;9632;51.018;4.284;2023-04-16T10:46:36;11.50;99.90
18998;DHT22;9632;51.018;4.284;2023-04-16T10:49:12;11.50;99.90
18998;DHT22;9632;51.018;4.284;2023-04-16T10:51:38;11.50;99.90
18998;DHT22;9632;51.018;4.284;2023-04-16T10:56:33;11.50;99.90
18998;DHT22;9632;51.018;4.284;2023-04-16T10:59:00;11.50;99.90
18998;DHT22;9632;51.018;4.284;2023-04-16T11:01:36;11.60;99.90
18998;DHT22;9632;51.018;4.284;2023-04-16T11:17:58;11.70;99.90
18998;DHT22;9632;51.018;4.284;2023-04-16T11:20:26;11.70;99.90
18998;DHT22;9632;51.018;4.284;2023-04-16T11:22:53;11.80;99.90
18998;DHT22;9632;51.018;4.284;2023-04-16T11:25:27;11.70;99.90
18998;DHT22;9632;51.018;4.284;2023-04-16T11:27:56;11.80;99.90
18998;DHT22;9632;51.018;4.284;2023-04-16T11:30:32;11.80;99.90
18998;DHT22;9632;51.018;4.284;2023-04-16T11:33:01;11.80;99.90
18998;DHT22;9632;51.018;4.284;2023-04-16T11:35:27;11.90;99.90
18998;DHT22;9632;51.018;4.284;2023-04-16T11:37:55;11.90;99.90
18998;DHT22;9632;51.018;4.284;2023-04-16T11:40:21;11.80;99.90
18998;DHT22;9632;51.018;4.284;2023-04-16T11:42:47;11.90;99.90
18998;DHT22;9632;51.018;4.284;2023-04-16T11:45:13;11.90;99.90
18998;DHT22;9632;51.018;4.284;2023-04-16T11:47:46;11.90;99.90
18998;DHT22;9632;51.018;4.284;2023-04-16T11:50:19;12.00;99.90
18998;DHT22;9632;51.018;4.284;2023-04-16T11:52:46;12.00;99.90
18998;DHT22;9632;51.018;4.284;2023-04-16T11:55:12;12.00;99.90
18998;DHT22;9632;51.018;4.284;2023-04-16T11:57:37;12.10;99.90
18998;DHT22;9632;51.018;4.284;2023-04-16T12:00:03;12.20;99.90
18998;DHT22;9632;51.018;4.284;2023-04-16T12:05:30;12.20;99.90
18998;DHT22;9632;51.018;4.284;2023-04-16T12:07:57;12.20;99.90
18998;DHT22;9632;51.018;4.284;2023-04-16T12:10:23;12.20;99.90
18998;DHT22;9632;51.018;4.284;2023-04-16T12:12:49;12.20;99.90
18998;DHT22;9632;51.018;4.284;2023-04-16T12:15:15;12.10;99.90
18998;DHT22;9632;51.018;4.284;2023-04-16T12:17:41;12.10;99.90
18998;DHT22;9632;51.018;4.284;2023-04-16T12:20:11;12.10;99.90
18998;DHT22;9632;51.018;4.284;2023-04-16T12:22:47;12.10;99.90
18998;DHT22;9632;51.018;4.284;2023-04-16T12:25:17;12.10;99.90
18998;DHT22;9632;51.018;4.284;2023-04-16T12:27:48;12.20;99.90
18998;DHT22;9632;51.018;4.284;2023-04-16T12:30:16;12.20;99.90
18998;DHT22;9632;51.018;4.284;2023-04-16T12:32:45;12.20;99.90
18998;DHT22;9632;51.018;4.284;2023-04-16T12:35:11;12.20;99.90
18998;DHT22;9632;51.018;4.284;2023-04-16T12:37:37;12.20;99.90
18998;DHT22;9632;51.018;4.284;2023-04-16T12:40:03;12.30;99.90
18998;DHT22;9632;51.018;4.284;2023-04-16T12:42:30;12.30;99.90
18998;DHT22;9632;51.018;4.284;2023-04-16T12:45:01;12.30;99.90
18998;DHT22;9632;51.018;4.284;2023-04-16T12:47:28;12.40;99.90
18998;DHT22;9632;51.018;4.284;2023-04-16T12:49:55;12.40;99.90
18998;DHT22;9632;51.018;4.284;2023-04-16T12:52:21;12.50;99.90
18998;DHT22;9632;51.018;4.284;2023-04-16T12:54:47;12.50;99.90
18998;DHT22;9632;51.018;4.284;2023-04-16T12:57:13;12.50;99.90
18998;DHT22;9632;51.018;4.284;2023-04-16T12:59:38;12.60;99.90
18998;DHT22;9632;51.018;4.284;2023-04-16T13:02:04;12.60;99.90
18998;DHT22;9632;51.018;4.284;2023-04-16T13:04:30;12.60;99.90
18998;DHT22;9632;51.018;4.284;2023-04-16T13:06:55;12.60;99.90
18998;DHT22;9632;51.018;4.284;2023-04-16T13:09:21;12.60;99.90
18998;DHT22;9632;51.018;4.284;2023-04-16T13:11:47;12.70;99.90
18998;DHT22;9632;51.018;4.284;2023-04-16T13:14:12;12.70;99.90
18998;DHT22;9632;51.018;4.284;2023-04-16T13:16:38;12.80;99.90
18998;DHT22;9632;51.018;4.284;2023-04-16T13:19:04;12.80;99.90
18998;DHT22;9632;51.018;4.284;2023-04-16T13:21:29;12.80;99.90
18998;DHT22;9632;51.018;4.284;2023-04-16T13:23:55;12.90;99.90
18998;DHT22;9632;51.018;4.284;2023-04-16T13:26:21;12.90;99.90
18998;DHT22;9632;51.018;4.284;2023-04-16T13:28:47;13.10;99.90
18998;DHT22;9632;51.018;4.284;2023-04-16T13:31:13;13.10;99.90
18998;DHT22;9632;51.018;4.284;2023-04-16T13:33:40;13.20;99.90
18998;DHT22;9632;51.018;4.284;2023-04-16T13:36:06;13.20;99.90
18998;DHT22;9632;51.018;4.284;2023-04-16T13:38:31;13.20;99.90
18998;DHT22;9632;51.018;4.284;2023-04-16T13:40:57;13.20;99.90
18998;DHT22;9632;51.018;4.284;2023-04-16T13:43:22;13.30;99.90
18998;DHT22;9632;51.018;4.284;2023-04-16T13:45:48;13.30;99.90
18998;DHT22;9632;51.018;4.284;2023-04-16T13:48:14;13.40;99.90
18998;DHT22;9632;51.018;4.284;2023-04-16T13:50:39;13.40;99.90
18998;DHT22;9632;51.018;4.284;2023-04-16T13:53:05;13.40;99.90
18998;DHT22;9632;51.018;4.284;2023-04-16T13:55:31;13.50;99.90
18998;DHT22;9632;51.018;4.284;2023-04-16T13:57:56;13.50;99.90
18998;DHT22;9632;51.018;4.284;2023-04-16T14:00:22;13.50;99.90
18998;DHT22;9632;51.018;4.284;2023-04-16T14:02:49;13.60;99.90
18998;DHT22;9632;51.018;4.284;2023-04-16T14:05:15;13.60;99.90
18998;DHT22;9632;51.018;4.284;2023-04-16T14:07:41;13.60;99.90
18998;DHT22;9632;51.018;4.284;2023-04-16T14:10:07;13.70;99.90
18998;DHT22;9632;51.018;4.284;2023-04-16T14:12:33;13.70;99.90
18998;DHT22;9632;51.018;4.284;2023-04-16T14:14:59;13.70;99.90
18998;DHT22;9632;51.018;4.284;2023-04-16T14:17:26;13.70;99.90
18998;DHT22;9632;51.018;4.284;2023-04-16T14:19:52;13.70;99.90
18998;DHT22;9632;51.018;4.284;2023-04-16T14:22:17;13.70;99.90
18998;DHT22;9632;51.018;4.284;2023-04-16T14:24:43;13.70;99.90
18998;DHT22;9632;51.018;4.284;2023-04-16T14:27:09;13.70;99.90
18998;DHT22;9632;51.018;4.284;2023-04-16T14:29:35;13.80;99.90
18998;DHT22;9632;51.018;4.284;2023-04-16T14:32:01;13.70;99.90
18998;DHT22;9632;51.018;4.284;2023-04-16T14:34:27;13.80;99.90
18998;DHT22;9632;51.018;4.284;2023-04-16T14:36:52;13.80;99.90
18998;DHT22;9632;51.018;4.284;2023-04-16T14:39:19;13.80;99.90
18998;DHT22;9632;51.018;4.284;2023-04-16T14:41:45;13.70;99.90
18998;DHT22;9632;51.018;4.284;2023-04-16T14:44:10;13.70;99.90
18998;DHT22;9632;51.018;4.284;2023-04-16T14:46:36;13.70;99.90
18998;DHT22;9632;51.018;4.284;2023-04-16T14:49:03;13.70;99.90
18998;DHT22;9632;51.018;4.284;2023-04-16T14:51:29;13.60;99.90
18998;DHT22;9632;51.018;4.284;2023-04-16T14:53:56;13.60;99.90
18998;DHT22;9632;51.018;4.284;2023-04-16T14:56:21;13.40;99.90
18998;DHT22;9632;51.018;4.284;2023-04-16T14:58:47;13.40;99.90
18998;DHT22;9632;51.018;4.284;2023-04-16T15:01:13;13.40;99.90
18998;DHT22;9632;51.018;4.284;2023-04-16T15:03:39;13.40;99.90
18998;DHT22;9632;51.018;4.284;2023-04-16T15:06:06;13.40;99.90
18998;DHT22;9632;51.018;4.284;2023-04-16T15:08:33;13.40;99.90
18998;DHT22;9632;51.018;4.284;2023-04-16T15:10:58;13.40;99.90
18998;DHT22;9632;51.018;4.284;2023-04-16T15:13:24;13.30;99.90
18998;DHT22;9632;51.018;4.284;2023-04-16T15:15:50;13.30;99.90
18998;DHT22;9632;51.018;4.284;2023-04-16T15:18:15;13.30;99.90
18998;DHT22;9632;51.018;4.284;2023-04-16T15:20:41;13.30;99.90
18998;DHT22;9632;51.018;4.284;2023-04-16T15:23:07;13.40;99.90
18998;DHT22;9632;51.018;4.284;2023-04-16T15:25:33;13.30;99.90
18998;DHT22;9632;51.018;4.284;2023-04-16T15:27:58;13.30;99.90
18998;DHT22;9632;51.018;4.284;2023-04-16T15:30:24;13.30;99.90
18998;DHT22;9632;51.018;4.284;2023-04-16T15:32:50;13.30;99.90
18998;DHT22;9632;51.018;4.284;2023-04-16T15:35:15;13.20;99.90
18998;DHT22;9632;51.018;4.284;2023-04-16T15:37:41;13.30;99.90
18998;DHT22;9632;51.018;4.284;2023-04-16T15:40:07;13.20;99.90
18998;DHT22;9632;51.018;4.284;2023-04-16T15:42:33;13.20;99.90
18998;DHT22;9632;51.018;4.284;2023-04-16T15:44:59;13.20;99.90
18998;DHT22;9632;51.018;4.284;2023-04-16T15:47:25;13.20;99.90
18998;DHT22;9632;51.018;4.284;2023-04-16T15:49:50;13.20;99.90
18998;DHT22;9632;51.018;4.284;2023-04-16T15:52:16;13.20;99.90
18998;DHT22;9632;51.018;4.284;2023-04-16T15:54:44;13.30;99.90
18998;DHT22;9632;51.018;4.284;2023-04-16T15:57:10;13.30;99.90
18998;DHT22;9632;51.018;4.284;2023-04-16T15:59:35;13.30;99.90
18998;DHT22;9632;51.018;4.284;2023-04-16T16:02:01;13.20;99.90
18998;DHT22;9632;51.018;4.284;2023-04-16T16:04:27;13.20;99.90